createdAt,value
2023-04-01T00:01:36.765Z,0
2023-04-01T00:03:16.499Z,0
2023-04-01T00:04:56.330Z,0
2023-04-01T00:06:36.014Z,0
2023-04-01T00:08:15.762Z,0
2023-04-01T00:09:55.631Z,0
2023-04-01T00:11:35.178Z,0
2023-04-01T00:13:15.045Z,0
2023-04-01T00:14:54.709Z,0
2023-04-01T00:16:34.563Z,0
2023-04-01T00:18:14.239Z,0
2023-04-01T00:19:54.128Z,0
2023-04-01T00:21:33.959Z,0
2023-04-01T00:23:13.684Z,0
2023-04-01T00:24:53.380Z,0
2023-04-01T00:26:33.100Z,0
2023-04-01T00:28:12.828Z,0
2023-04-01T00:29:52.642Z,0
2023-04-01T00:31:32.517Z,0
2023-04-01T00:33:12.277Z,0
2023-04-01T00:34:52.026Z,0
2023-04-01T00:36:31.626Z,0
2023-04-01T00:38:11.420Z,0
2023-04-01T00:39:51.298Z,0
2023-04-01T00:41:31.107Z,0
2023-04-01T00:43:10.855Z,0
2023-04-01T00:44:50.458Z,0
2023-04-01T00:46:30.298Z,0
2023-04-01T00:48:10.052Z,0
2023-04-01T00:49:49.855Z,0
2023-04-01T00:51:29.526Z,0
2023-04-01T00:53:09.461Z,0
2023-04-01T00:54:49.236Z,0
2023-04-01T00:56:28.817Z,0
2023-04-01T00:58:08.762Z,0
2023-04-01T00:59:48.482Z,0
2023-04-01T01:01:28.201Z,0
2023-04-01T01:03:08.001Z,0
2023-04-01T01:04:47.796Z,0
2023-04-01T01:06:27.397Z,0
2023-04-01T01:08:07.324Z,0
2023-04-01T01:09:46.988Z,0
2023-04-01T01:11:26.680Z,0
2023-04-01T01:13:06.438Z,0
2023-04-01T01:14:46.319Z,0
2023-04-01T01:16:25.969Z,0
2023-04-01T01:18:05.880Z,0
2023-04-01T01:19:45.688Z,0
2023-04-01T01:21:25.456Z,0
2023-04-01T01:23:05.195Z,0
2023-04-01T01:24:44.786Z,0
2023-04-01T01:26:24.762Z,0
2023-04-01T01:28:04.427Z,0
2023-04-01T01:29:44.250Z,0
2023-04-01T01:31:24.016Z,0
2023-04-01T01:33:03.796Z,0
2023-04-01T01:34:43.545Z,0
2023-04-01T01:36:23.254Z,0
2023-04-01T01:38:02.907Z,0
2023-04-01T01:39:42.670Z,0
2023-04-01T01:41:22.592Z,0
2023-04-01T01:43:02.363Z,0
2023-04-01T01:44:42.026Z,0
2023-04-01T01:46:21.737Z,0
2023-04-01T01:48:01.643Z,0
2023-04-01T01:49:41.260Z,0
2023-04-01T01:51:21.167Z,0
2023-04-01T01:53:00.914Z,0
2023-04-01T01:54:40.667Z,0
2023-04-01T01:56:20.442Z,0
2023-04-01T01:58:00.198Z,0
2023-04-01T01:59:40.035Z,0
2023-04-01T02:01:19.696Z,0
2023-04-01T02:02:59.553Z,0
2023-04-01T02:04:39.273Z,0
2023-04-01T02:06:18.931Z,0
2023-04-01T02:07:58.682Z,0
2023-04-01T02:09:38.527Z,0
2023-04-01T02:11:18.315Z,0
2023-04-01T02:12:58.081Z,0
2023-04-01T02:14:37.804Z,0
2023-04-01T02:16:17.675Z,0
2023-04-01T02:17:57.411Z,0
2023-04-01T02:19:37.146Z,0
2023-04-01T02:21:16.868Z,0
2023-04-01T02:22:56.709Z,0
2023-04-01T02:24:36.291Z,0
2023-04-01T02:26:16.049Z,0
2023-04-01T02:27:55.857Z,0
2023-04-01T02:29:35.598Z,0
2023-04-01T02:31:15.555Z,0
2023-04-01T02:32:55.237Z,0
2023-04-01T02:34:35.072Z,0
2023-04-01T02:36:14.827Z,0
2023-04-01T02:37:54.427Z,0
2023-04-01T02:39:34.348Z,0
2023-04-01T02:41:14.054Z,0
2023-04-01T02:42:53.836Z,0
2023-04-01T02:44:33.665Z,0
2023-04-01T02:46:13.429Z,0
2023-04-01T02:47:53.037Z,0
2023-04-01T02:49:32.810Z,0
2023-04-01T02:51:12.618Z,0
2023-04-01T02:52:52.441Z,0
2023-04-01T02:54:32.033Z,0
2023-04-01T02:56:11.797Z,0
2023-04-01T02:57:51.569Z,0
2023-04-01T02:59:31.512Z,0
2023-04-01T03:01:11.204Z,0
2023-04-01T03:02:51.027Z,0
2023-04-01T03:04:30.746Z,0
2023-04-01T03:06:10.391Z,0
2023-04-01T03:07:50.184Z,0
2023-04-01T03:09:29.916Z,0
2023-04-01T03:11:09.747Z,0
2023-04-01T03:12:49.593Z,0
2023-04-01T03:14:29.398Z,0
2023-04-01T03:16:08.959Z,0
2023-04-01T03:17:48.872Z,0
2023-04-01T03:19:28.670Z,0
2023-04-01T03:21:08.395Z,0
2023-04-01T03:22:48.088Z,0
2023-04-01T03:24:27.872Z,0
2023-04-01T03:26:07.552Z,0
2023-04-01T03:27:47.342Z,0
2023-04-01T03:29:27.205Z,0
2023-04-01T03:31:06.976Z,0
2023-04-01T03:32:46.837Z,0
2023-04-01T03:34:26.498Z,0
2023-04-01T03:36:06.347Z,0
2023-04-01T03:37:45.892Z,0
2023-04-01T03:39:25.855Z,0
2023-04-01T03:41:05.646Z,0
2023-04-01T03:42:45.196Z,0
2023-04-01T03:44:25.129Z,0
2023-04-01T03:46:04.951Z,0
2023-04-01T03:47:44.664Z,0
2023-04-01T03:49:24.396Z,0
2023-04-01T03:51:04.141Z,0
2023-04-01T03:52:43.963Z,0
2023-04-01T03:54:23.545Z,0
2023-04-01T03:56:03.532Z,0
2023-04-01T03:57:43.213Z,0
2023-04-01T03:59:22.968Z,0
2023-04-01T04:01:02.655Z,0
2023-04-01T04:02:42.537Z,0
2023-04-01T04:04:22.203Z,0
2023-04-01T04:06:02.023Z,0
2023-04-01T04:07:41.780Z,0
2023-04-01T04:09:21.604Z,0
2023-04-01T04:11:01.336Z,0
2023-04-01T04:12:41.110Z,0
2023-04-01T04:14:20.884Z,0
2023-04-01T04:16:00.517Z,0
2023-04-01T04:17:40.291Z,0
2023-04-01T04:19:19.991Z,0
2023-04-01T04:20:59.750Z,0
2023-04-01T04:22:39.611Z,0
2023-04-01T04:24:19.425Z,0
2023-04-01T04:25:59.204Z,0
2023-04-01T04:27:38.990Z,0
2023-04-01T04:29:18.635Z,0
2023-04-01T04:30:58.342Z,0
2023-04-01T04:32:38.181Z,0
2023-04-01T04:34:17.865Z,0
2023-04-01T04:35:57.757Z,0
2023-04-01T04:37:37.424Z,0
2023-04-01T04:39:17.297Z,0
2023-04-01T04:40:56.919Z,0
2023-04-01T04:42:36.823Z,0
2023-04-01T04:44:16.558Z,0
2023-04-01T04:45:56.229Z,0
2023-04-01T04:47:36.103Z,0
2023-04-01T04:49:15.912Z,0
2023-04-01T04:50:55.557Z,0
2023-04-01T04:52:35.357Z,0
2023-04-01T04:54:15.191Z,0
2023-04-01T04:55:54.806Z,0
2023-04-01T04:57:34.658Z,0
2023-04-01T04:59:14.374Z,0
2023-04-01T05:00:54.106Z,0
2023-04-01T05:02:33.869Z,0
2023-04-01T05:04:13.651Z,0
2023-04-01T05:05:53.471Z,0.12
2023-04-01T05:07:33.197Z,0.25
2023-04-01T05:09:12.906Z,0.25
2023-04-01T05:10:52.681Z,0.25
2023-04-01T05:12:32.427Z,0.12
2023-04-01T05:14:12.229Z,0.38
2023-04-01T05:15:52.112Z,0.25
2023-04-01T05:17:31.760Z,0.38
2023-04-01T05:19:11.512Z,0.25
2023-04-01T05:20:51.266Z,0
2023-04-01T05:22:31.200Z,0.25
2023-04-01T05:24:10.819Z,0.38
2023-04-01T05:25:50.612Z,0.51
2023-04-01T05:27:30.449Z,0.51
2023-04-01T05:29:10.072Z,0.25
2023-04-01T05:30:49.856Z,0.51
2023-04-01T05:32:29.632Z,0.51
2023-04-01T05:34:09.488Z,0.38
2023-04-01T05:35:49.179Z,0.25
2023-04-01T05:37:28.979Z,0.77
2023-04-01T05:39:08.673Z,0.38
2023-04-01T05:40:48.564Z,0.64
2023-04-01T05:42:28.341Z,0.51
2023-04-01T05:44:08.231Z,0.9
2023-04-01T05:45:47.743Z,0.77
2023-04-01T05:47:27.571Z,1.03
2023-04-01T05:49:07.247Z,1.55
2023-04-01T05:50:47.184Z,1.43
2023-04-01T05:52:26.868Z,1.7
2023-04-01T05:54:06.570Z,2.09
2023-04-01T05:55:46.393Z,1.58
2023-04-01T05:57:26.065Z,1.72
2023-04-01T05:59:05.992Z,1.59
2023-04-01T06:00:45.640Z,1.45
2023-04-01T06:02:25.494Z,1.19
2023-04-01T06:04:05.120Z,0.93
2023-04-01T06:05:44.903Z,0.93
2023-04-01T06:07:24.698Z,1.19
2023-04-01T06:09:04.419Z,1.32
2023-04-01T06:10:44.270Z,1.46
2023-04-01T06:12:23.948Z,2
2023-04-01T06:14:03.831Z,1.2
2023-04-01T06:15:43.524Z,1.2
2023-04-01T06:17:23.261Z,1.46
2023-04-01T06:19:03.101Z,1.2
2023-04-01T06:20:42.787Z,1.2
2023-04-01T06:22:22.647Z,1.6
2023-04-01T06:24:02.301Z,1.47
2023-04-01T06:25:42.163Z,1.61
2023-04-01T06:27:21.809Z,1.07
2023-04-01T06:29:01.574Z,1.61
2023-04-01T06:30:41.462Z,1.34
2023-04-01T06:32:21.188Z,1.21
2023-04-01T06:34:01.001Z,1.75
2023-04-01T06:35:40.680Z,2.29
2023-04-01T06:37:20.573Z,2.16
2023-04-01T06:39:00.346Z,1.9
2023-04-01T06:40:40.055Z,1.9
2023-04-01T06:42:19.751Z,2.32
2023-04-01T06:43:59.585Z,2.46
2023-04-01T06:45:39.379Z,2.32
2023-04-01T06:47:19.107Z,2.74
2023-04-01T06:48:58.928Z,2.61
2023-04-01T06:50:38.686Z,2.33
2023-04-01T06:52:18.452Z,1.79
2023-04-01T06:53:58.191Z,1.65
2023-04-01T06:55:37.914Z,2.2
2023-04-01T06:57:17.710Z,2.47
2023-04-01T06:58:57.489Z,2.75
2023-04-01T07:00:37.243Z,2.33
2023-04-01T07:02:17.011Z,3.05
2023-04-01T07:03:56.830Z,2.34
2023-04-01T07:05:36.429Z,2.08
2023-04-01T07:07:16.306Z,2.07
2023-04-01T07:08:55.992Z,2.9
2023-04-01T07:10:35.819Z,2.91
2023-04-01T07:12:15.432Z,2.91
2023-04-01T07:13:55.373Z,2.08
2023-04-01T07:15:35.151Z,1.94
2023-04-01T07:17:14.857Z,2.49
2023-04-01T07:18:54.641Z,2.21
2023-04-01T07:20:34.491Z,2.35
2023-04-01T07:22:14.188Z,2.49
2023-04-01T07:23:53.782Z,2.07
2023-04-01T07:25:33.622Z,2.49
2023-04-01T07:27:13.297Z,2.21
2023-04-01T07:28:53.239Z,3.04
2023-04-01T07:30:32.823Z,3.48
2023-04-01T07:32:12.621Z,2.64
2023-04-01T07:33:52.544Z,2.8
2023-04-01T07:35:32.207Z,2.65
2023-04-01T07:37:12.156Z,2.64
2023-04-01T07:38:51.664Z,3.06
2023-04-01T07:40:31.562Z,3.2
2023-04-01T07:42:11.321Z,3.91
2023-04-01T07:43:51.140Z,3.64
2023-04-01T07:45:30.880Z,3.65
2023-04-01T07:47:10.481Z,3.52
2023-04-01T07:48:50.397Z,4.09
2023-04-01T07:50:30.178Z,3.81
2023-04-01T07:52:09.989Z,4.69
2023-04-01T07:53:49.696Z,4.39
2023-04-01T07:55:29.343Z,4.98
2023-04-01T07:57:09.233Z,4.98
2023-04-01T07:58:48.830Z,5.72
2023-04-01T08:00:28.774Z,5.88
2023-04-01T08:02:08.501Z,6.62
2023-04-01T08:03:48.170Z,6.37
2023-04-01T08:05:27.985Z,6.51
2023-04-01T08:07:07.662Z,6.68
2023-04-01T08:08:47.603Z,7.16
2023-04-01T08:10:27.362Z,7.59
2023-04-01T08:12:07.087Z,8
2023-04-01T08:13:46.814Z,7.45
2023-04-01T08:15:26.531Z,7.61
2023-04-01T08:17:06.367Z,7.42
2023-04-01T08:18:46.172Z,7.29
2023-04-01T08:20:25.750Z,7.45
2023-04-01T08:22:05.788Z,7.3
2023-04-01T08:23:45.463Z,7.11
2023-04-01T08:25:25.156Z,6.98
2023-04-01T08:27:05.031Z,6.99
2023-04-01T08:28:44.722Z,6.66
2023-04-01T08:30:24.480Z,6.84
2023-04-01T08:32:04.270Z,6.51
2023-04-01T08:33:44.005Z,6.38
2023-04-01T08:35:23.787Z,6.39
2023-04-01T08:37:03.466Z,6.07
2023-04-01T08:38:43.264Z,6.07
2023-04-01T08:40:22.981Z,6.22
2023-04-01T08:42:02.880Z,5.94
2023-04-01T08:43:42.633Z,5.77
2023-04-01T08:45:22.454Z,5.79
2023-04-01T08:47:02.105Z,5.62
2023-04-01T08:48:41.914Z,5.67
2023-04-01T08:50:21.503Z,5.48
2023-04-01T08:52:01.449Z,5.33
2023-04-01T08:53:41.228Z,5.35
2023-04-01T08:55:20.854Z,5.19
2023-04-01T08:57:00.697Z,5.22
2023-04-01T08:58:40.328Z,5.04
2023-04-01T09:00:20.106Z,4.91
2023-04-01T09:02:00.077Z,4.89
2023-04-01T09:03:39.610Z,4.59
2023-04-01T09:05:19.383Z,4.58
2023-04-01T09:06:59.169Z,4.42
2023-04-01T09:08:39.083Z,4.42
2023-04-01T09:10:18.767Z,4.29
2023-04-01T09:11:58.609Z,4.3
2023-04-01T09:13:38.216Z,4.16
2023-04-01T09:15:18.083Z,4.01
2023-04-01T09:16:57.830Z,3.98
2023-04-01T09:18:37.571Z,4.16
2023-04-01T09:20:17.409Z,3.84
2023-04-01T09:21:57.119Z,4.01
2023-04-01T09:23:36.939Z,3.7
2023-04-01T09:25:16.556Z,3.72
2023-04-01T09:26:56.493Z,3.56
2023-04-01T09:28:36.241Z,3.41
2023-04-01T09:30:15.952Z,3.56
2023-04-01T09:31:55.798Z,3.4
2023-04-01T09:33:35.512Z,3.11
2023-04-01T09:35:15.311Z,3.26
2023-04-01T09:36:55.062Z,3.41
2023-04-01T09:38:34.691Z,2.96
2023-04-01T09:40:14.588Z,2.81
2023-04-01T09:41:54.405Z,2.95
2023-04-01T09:43:33.961Z,2.82
2023-04-01T09:45:13.793Z,3.28
2023-04-01T09:46:53.665Z,2.67
2023-04-01T09:48:33.257Z,2.52
2023-04-01T09:50:13.191Z,2.51
2023-04-01T09:51:52.826Z,2.36
2023-04-01T09:53:32.745Z,2.82
2023-04-01T09:55:12.425Z,2.83
2023-04-01T09:56:52.251Z,2.83
2023-04-01T09:58:31.948Z,2.52
2023-04-01T10:00:11.796Z,2.68
2023-04-01T10:01:51.584Z,2.36
2023-04-01T10:03:31.274Z,2.23
2023-04-01T10:05:11.056Z,2.08
2023-04-01T10:06:50.899Z,2.35
2023-04-01T10:08:30.497Z,2.52
2023-04-01T10:10:10.273Z,2.07
2023-04-01T10:11:50.105Z,2.4
2023-04-01T10:13:29.888Z,2.09
2023-04-01T10:15:09.671Z,1.82
2023-04-01T10:16:49.332Z,1.82
2023-04-01T10:20:08.874Z,1.68
2023-04-01T10:21:48.524Z,1.68
2023-04-01T10:23:28.381Z,1.81
2023-04-01T10:25:08.240Z,1.54
2023-04-01T10:26:47.823Z,1.69
2023-04-01T10:28:27.641Z,1.68
2023-04-01T10:30:07.342Z,1.54
2023-04-01T10:31:47.137Z,1.68
2023-04-01T10:33:26.951Z,1.68
2023-04-01T10:35:06.746Z,1.68
2023-04-01T10:36:46.535Z,1.54
2023-04-01T10:38:26.240Z,1.82
2023-04-01T10:40:06.074Z,1.54
2023-04-01T10:41:45.830Z,1.68
2023-04-01T10:43:25.600Z,1.25
2023-04-01T10:45:05.344Z,1.12
2023-04-01T10:46:45.075Z,1.54
2023-04-01T10:48:24.833Z,1.53
2023-04-01T10:50:04.512Z,1.82
2023-04-01T10:51:44.274Z,1.26
2023-04-01T10:53:24.045Z,1.39
2023-04-01T10:55:03.910Z,1.54
2023-04-01T10:56:43.578Z,1.13
2023-04-01T10:58:23.545Z,1.54
2023-04-01T11:00:03.259Z,1.54
2023-04-01T11:01:42.939Z,1.54
2023-04-01T11:03:22.744Z,1.4
2023-04-01T11:05:02.531Z,1.69
2023-04-01T11:06:42.301Z,1.54
2023-04-01T11:08:22.100Z,1.54
2023-04-01T11:10:01.864Z,1.68
2023-04-01T11:11:41.452Z,1.4
2023-04-01T11:13:21.377Z,1.4
2023-04-01T11:15:01.044Z,1.54
2023-04-01T11:16:40.740Z,1.39
2023-04-01T11:18:20.494Z,1.4
2023-04-01T11:20:00.266Z,1.4
2023-04-01T11:21:40.054Z,1.27
2023-04-01T11:23:19.808Z,0.98
2023-04-01T11:24:59.593Z,1.12
2023-04-01T11:26:39.319Z,1.11
2023-04-01T11:28:19.207Z,1.4
2023-04-01T11:29:58.858Z,1.26
2023-04-01T11:31:38.688Z,0.97
2023-04-01T11:33:18.404Z,0.98
2023-04-01T11:34:58.292Z,1.26
2023-04-01T11:36:38.078Z,1.12
2023-04-01T11:38:17.658Z,1.55
2023-04-01T11:39:57.489Z,1.12
2023-04-01T11:41:37.208Z,0.98
2023-04-01T11:43:16.963Z,0.83
2023-04-01T11:44:56.720Z,1.26
2023-04-01T11:46:36.490Z,1.26
2023-04-01T11:48:16.315Z,1.54
2023-04-01T11:49:56.019Z,1.27
2023-04-01T11:51:35.766Z,1.26
2023-04-01T11:53:15.555Z,1.39
2023-04-01T11:54:55.313Z,1.12
2023-04-01T11:56:35.111Z,1.41
2023-04-01T11:58:14.848Z,1.11
2023-04-01T11:59:54.595Z,1.12
2023-04-01T12:01:34.360Z,1.12
2023-04-01T12:03:14.228Z,1.4
2023-04-01T12:04:53.890Z,1.12
2023-04-01T12:06:33.647Z,0.98
2023-04-01T12:08:13.429Z,1.26
2023-04-01T12:09:53.177Z,1.54
2023-04-01T12:11:32.961Z,1.12
2023-04-01T12:13:12.704Z,0.84
2023-04-01T12:14:52.470Z,1.4
2023-04-01T12:16:32.234Z,1.12
2023-04-01T12:18:12.006Z,0.98
2023-04-01T12:19:51.777Z,1.26
2023-04-01T12:21:31.520Z,0.98
2023-04-01T12:23:11.318Z,0.97
2023-04-01T12:24:51.076Z,0.84
2023-04-01T12:26:30.815Z,0.98
2023-04-01T12:28:10.607Z,0.99
2023-04-01T12:29:50.345Z,1.26
2023-04-01T12:31:30.112Z,1.55
2023-04-01T12:33:09.886Z,1.12
2023-04-01T12:34:49.632Z,1.12
2023-04-01T12:36:29.411Z,0.7
2023-04-01T12:38:09.170Z,0.7
2023-04-01T12:39:49.011Z,1.26
2023-04-01T12:41:28.704Z,1.12
2023-04-01T12:43:08.453Z,1.12
2023-04-01T12:44:48.231Z,1.12
2023-04-01T12:46:27.989Z,1.12
2023-04-01T12:48:07.797Z,1.26
2023-04-01T12:49:47.512Z,0.98
2023-04-01T12:51:27.283Z,1.26
2023-04-01T12:53:07.044Z,1.4
2023-04-01T12:54:46.813Z,1.41
2023-04-01T12:56:26.586Z,0.98
2023-04-01T12:58:06.334Z,1.27
2023-04-01T12:59:46.105Z,1.26
2023-04-01T13:01:25.869Z,1.12
2023-04-01T13:03:05.618Z,0.84
2023-04-01T13:04:45.394Z,1.27
2023-04-01T13:06:25.147Z,0.98
2023-04-01T13:08:04.992Z,1.12
2023-04-01T13:09:44.692Z,1.12
2023-04-01T13:11:24.545Z,1.13
2023-04-01T13:13:04.217Z,1.26
2023-04-01T13:14:43.967Z,0.84
2023-04-01T13:16:23.738Z,1.27
2023-04-01T13:18:03.497Z,0.7
2023-04-01T13:19:43.277Z,1.13
2023-04-01T13:21:23.028Z,0.84
2023-04-01T13:23:02.811Z,1.12
2023-04-01T13:24:42.607Z,0.97
2023-04-01T13:26:22.368Z,1.12
2023-04-01T13:28:02.094Z,1.26
2023-04-01T13:29:41.873Z,0.84
2023-04-01T13:31:21.610Z,0.98
2023-04-01T13:33:01.404Z,0.84
2023-04-01T13:34:41.142Z,0.7
2023-04-01T13:36:20.901Z,0.7
2023-04-01T13:38:00.676Z,1.27
2023-04-01T13:39:40.455Z,0.98
2023-04-01T13:41:20.210Z,1.27
2023-04-01T13:42:59.976Z,1.26
2023-04-01T13:44:39.716Z,1.27
2023-04-01T13:46:19.491Z,0.98
2023-04-01T13:47:59.303Z,1.26
2023-04-01T13:49:39.018Z,1.41
2023-04-01T13:51:18.784Z,0.98
2023-04-01T13:52:58.549Z,1.12
2023-04-01T13:54:38.331Z,0.99
2023-04-01T13:56:18.077Z,1.4
2023-04-01T13:57:57.868Z,0.84
2023-04-01T13:59:37.616Z,0.84
2023-04-01T14:01:17.356Z,1.12
2023-04-01T14:02:57.136Z,0.84
2023-04-01T14:04:36.888Z,0.98
2023-04-01T14:06:16.653Z,0.84
2023-04-01T14:07:56.410Z,1.12
2023-04-01T14:09:36.297Z,0.84
2023-04-01T14:11:16.060Z,0.99
2023-04-01T14:12:55.825Z,1.41
2023-04-01T14:14:35.662Z,1.12
2023-04-01T14:16:15.443Z,1.12
2023-04-01T14:17:55.121Z,0.56
2023-04-01T14:19:34.868Z,1.12
2023-04-01T14:21:14.699Z,0.98
2023-04-01T14:22:54.409Z,0.85
2023-04-01T14:24:34.180Z,1.12
2023-04-01T14:26:13.951Z,0.85
2023-04-01T14:27:53.729Z,0.7
2023-04-01T14:29:33.453Z,0.97
2023-04-01T14:31:13.224Z,0.84
2023-04-01T14:32:53.001Z,1.27
2023-04-01T14:34:32.784Z,0.7
2023-04-01T14:36:12.526Z,0.84
2023-04-01T14:37:52.289Z,1.13
2023-04-01T14:39:32.041Z,0.7
2023-04-01T14:41:11.958Z,1.26
2023-04-01T14:42:51.711Z,0.84
2023-04-01T14:44:31.478Z,0.98
2023-04-01T14:46:11.241Z,0.98
2023-04-01T14:47:51.088Z,0.98
2023-04-01T14:49:30.774Z,0.84
2023-04-01T14:51:10.521Z,1.12
2023-04-01T14:52:50.315Z,0.98
2023-04-01T14:54:30.060Z,0.84
2023-04-01T14:56:09.824Z,0.56
2023-04-01T14:57:49.614Z,1.12
2023-04-01T14:59:29.350Z,0.7
2023-04-01T15:01:09.149Z,0.7
2023-04-01T15:02:48.917Z,1.13
2023-04-01T15:04:28.639Z,0.56
2023-04-01T15:06:08.413Z,1.12
2023-04-01T15:07:48.176Z,1.12
2023-04-01T15:09:27.950Z,0.56
2023-04-01T15:11:07.709Z,1.26
2023-04-01T15:12:47.464Z,1.12
2023-04-01T15:14:27.399Z,0.99
2023-04-01T15:16:07.048Z,0.98
2023-04-01T15:17:46.821Z,0.7
2023-04-01T15:19:26.560Z,0.98
2023-04-01T15:21:06.349Z,1.27
2023-04-01T15:22:46.099Z,1.12
2023-04-01T15:24:25.872Z,0.99
2023-04-01T15:26:05.624Z,1.12
2023-04-01T15:27:45.406Z,0.84
2023-04-01T15:29:25.332Z,1.26
2023-04-01T15:31:05.042Z,0.98
2023-04-01T15:32:44.793Z,1.27
2023-04-01T15:34:24.575Z,0.56
2023-04-01T15:36:04.328Z,0.84
2023-04-01T15:37:44.132Z,0.7
2023-04-01T15:39:23.930Z,0.98
2023-04-01T15:41:03.614Z,1.13
2023-04-01T15:42:43.388Z,0.7
2023-04-01T15:44:23.174Z,1.41
2023-04-01T15:46:03.089Z,0.84
2023-04-01T15:47:42.881Z,1.13
2023-04-01T15:49:22.644Z,1.12
2023-04-01T15:51:02.435Z,1.13
2023-04-01T15:52:42.163Z,0.84
2023-04-01T15:54:21.732Z,0.99
2023-04-01T15:56:01.519Z,0.84
2023-04-01T15:57:41.364Z,0.56
2023-04-01T15:59:21.358Z,0.98
2023-04-01T16:01:01.034Z,0.84
2023-04-01T16:02:40.818Z,0.85
2023-04-01T16:04:20.419Z,0.7
2023-04-01T16:06:00.362Z,1.41
2023-04-01T16:07:40.125Z,0.42
2023-04-01T16:09:19.727Z,0.99
2023-04-01T16:10:59.665Z,0.99
2023-04-01T16:12:39.416Z,0.84
2023-04-01T16:14:19.171Z,0.99
2023-04-01T16:15:58.978Z,0.42
2023-04-01T16:17:38.539Z,0.84
2023-04-01T16:19:18.426Z,0.56
2023-04-01T16:20:58.235Z,1.12
2023-04-01T16:22:38.002Z,0.99
2023-04-01T16:24:17.754Z,0.56
2023-04-01T16:25:57.478Z,0.84
2023-04-01T16:27:37.295Z,0.56
2023-04-01T16:29:16.921Z,0.71
2023-04-01T16:30:56.840Z,0.7
2023-04-01T16:32:36.726Z,0.85
2023-04-01T16:34:16.511Z,0.56
2023-04-01T16:35:56.236Z,1.12
2023-04-01T16:37:36.003Z,1.13
2023-04-01T16:39:15.830Z,0.42
2023-04-01T16:40:55.503Z,0.42
2023-04-01T16:42:35.274Z,0.84
2023-04-01T16:44:15.100Z,0.42
2023-04-01T16:45:54.653Z,1.12
2023-04-01T16:47:34.638Z,1.26
2023-04-01T16:49:14.384Z,0.98
2023-04-01T16:50:54.167Z,0.98
2023-04-01T16:52:33.858Z,0.96
2023-04-01T16:54:13.612Z,0.4
2023-04-01T16:55:53.397Z,0.13
2023-04-01T16:57:33.176Z,0.52
2023-04-01T16:59:12.926Z,0.26
2023-04-01T17:00:52.738Z,0.52
2023-04-01T17:02:32.553Z,0.26
2023-04-01T17:04:12.401Z,0.39
2023-04-01T17:05:52.111Z,0.13
2023-04-01T17:07:31.869Z,0.13
2023-04-01T17:09:11.627Z,0.26
2023-04-01T17:10:51.387Z,0.13
2023-04-01T17:12:31.148Z,0.13
2023-04-01T17:14:10.764Z,0
2023-04-01T17:15:50.675Z,0
2023-04-01T17:17:30.489Z,0
2023-04-01T17:19:10.232Z,0
2023-04-01T17:20:50.017Z,0
2023-04-01T17:22:29.573Z,0
2023-04-01T17:24:09.341Z,0
2023-04-01T17:25:49.348Z,0
2023-04-01T17:27:29.062Z,0
2023-04-01T17:29:08.621Z,0
2023-04-01T17:30:48.549Z,0
2023-04-01T17:32:28.425Z,0
2023-04-01T17:34:08.096Z,0
2023-04-01T17:35:47.826Z,0
2023-04-01T17:37:27.680Z,0
2023-04-01T17:39:07.221Z,0
2023-04-01T17:40:46.964Z,0
2023-04-01T17:42:26.949Z,0
2023-04-01T17:44:06.667Z,0
2023-04-01T17:45:46.430Z,0
2023-04-01T17:47:26.315Z,0
2023-04-01T17:49:06.051Z,0
2023-04-01T17:50:45.823Z,0
2023-04-01T17:52:25.619Z,0
2023-04-01T17:54:05.391Z,0
2023-04-01T17:55:45.176Z,0
2023-04-01T17:57:24.889Z,0
2023-04-01T17:59:04.592Z,0
2023-04-01T18:00:44.366Z,0
2023-04-01T18:02:24.190Z,0
2023-04-01T18:04:03.940Z,0
2023-04-01T18:05:43.752Z,0
2023-04-01T18:07:23.481Z,0
2023-04-01T18:09:03.229Z,0
2023-04-01T18:10:42.874Z,0
2023-04-01T18:12:22.775Z,0
2023-04-01T18:14:02.564Z,0
2023-04-01T18:15:42.172Z,0
2023-04-01T18:17:22.078Z,0
2023-04-01T18:19:01.816Z,0
2023-04-01T18:20:41.647Z,0
2023-04-01T18:22:21.386Z,0
2023-04-01T18:24:01.111Z,0
2023-04-01T18:25:40.699Z,0
2023-04-01T18:27:20.508Z,0
2023-04-01T18:29:00.246Z,0
2023-04-01T18:30:40.061Z,0
2023-04-01T18:32:19.932Z,0
2023-04-01T18:33:59.650Z,0
2023-04-01T18:35:39.476Z,0
2023-04-01T18:37:19.160Z,0
2023-04-01T18:38:59.002Z,0
2023-04-01T18:40:38.753Z,0
2023-04-01T18:42:18.612Z,0
2023-04-01T18:43:58.432Z,0
2023-04-01T18:45:38.173Z,0
2023-04-01T18:47:17.942Z,0
2023-04-01T18:48:57.676Z,0
2023-04-01T18:50:37.270Z,0
2023-04-01T18:52:17.108Z,0
2023-04-01T18:53:56.936Z,0
2023-04-01T18:55:36.723Z,0
2023-04-01T18:57:16.559Z,0
2023-04-01T18:58:56.315Z,0
2023-04-01T19:00:36.029Z,0
2023-04-01T19:02:15.830Z,0
2023-04-01T19:03:55.452Z,0
2023-04-01T19:05:35.386Z,0
2023-04-01T19:07:15.104Z,0
2023-04-01T19:08:54.850Z,0
2023-04-01T19:10:34.459Z,0
2023-04-01T19:12:14.269Z,0
2023-04-01T19:13:54.130Z,0
2023-04-01T19:15:33.835Z,0
2023-04-01T19:17:13.685Z,0
2023-04-01T19:18:53.442Z,0
2023-04-01T19:20:33.063Z,0
2023-04-01T19:22:12.941Z,0
2023-04-01T19:23:52.728Z,0
2023-04-01T19:25:32.564Z,0
2023-04-01T19:27:12.260Z,0
2023-04-01T19:28:51.986Z,0
2023-04-01T19:30:31.615Z,0
2023-04-01T19:32:11.361Z,0
2023-04-01T19:33:51.430Z,0
2023-04-01T19:35:31.208Z,0
2023-04-01T19:37:10.902Z,0
2023-04-01T19:38:50.700Z,0
2023-04-01T19:40:30.431Z,0
2023-04-01T19:42:10.230Z,0
2023-04-01T19:43:49.827Z,0
2023-04-01T19:45:29.721Z,0
2023-04-01T19:47:09.499Z,0
2023-04-01T19:48:49.279Z,0
2023-04-01T19:50:29.132Z,0
2023-04-01T19:52:08.814Z,0
2023-04-01T19:53:48.587Z,0
2023-04-01T19:55:28.172Z,0
2023-04-01T19:57:08.018Z,0
2023-04-01T19:58:47.872Z,0
2023-04-01T20:00:27.471Z,0
2023-04-01T20:02:07.446Z,0
2023-04-01T20:03:47.195Z,0
2023-04-01T20:05:26.761Z,0
2023-04-01T20:07:06.720Z,0
2023-04-01T20:08:46.299Z,0
2023-04-01T20:10:26.176Z,0
2023-04-01T20:12:06.003Z,0
2023-04-01T20:13:45.758Z,0
2023-04-01T20:15:25.451Z,0
2023-04-01T20:17:05.383Z,0
2023-04-01T20:18:44.893Z,0
2023-04-01T20:20:24.737Z,0
2023-04-01T20:22:04.547Z,0
2023-04-01T20:23:44.268Z,0
2023-04-01T20:25:24.012Z,0
2023-04-01T20:27:03.849Z,0
2023-04-01T20:28:43.733Z,0
2023-04-01T20:30:23.449Z,0
2023-04-01T20:32:03.101Z,0
2023-04-01T20:33:42.944Z,0
2023-04-01T20:35:22.838Z,0
2023-04-01T20:37:02.479Z,0
2023-04-01T20:38:42.368Z,0
2023-04-01T20:40:22.052Z,0
2023-04-01T20:42:01.739Z,0
2023-04-01T20:43:41.442Z,0
2023-04-01T20:45:21.338Z,0
2023-04-01T20:47:01.116Z,0
2023-04-01T20:48:40.896Z,0
2023-04-01T20:50:20.676Z,0
2023-04-01T20:52:00.427Z,0
2023-04-01T20:53:40.021Z,0
2023-04-01T20:55:19.960Z,0
2023-04-01T20:56:59.587Z,0
2023-04-01T20:58:39.497Z,0
2023-04-01T21:00:19.071Z,0
2023-04-01T21:01:58.955Z,0
2023-04-01T21:03:38.791Z,0
2023-04-01T21:05:18.394Z,0
2023-04-01T21:06:58.353Z,0
2023-04-01T21:08:37.991Z,0
2023-04-01T21:10:17.891Z,0
2023-04-01T21:11:57.559Z,0
2023-04-01T21:13:37.349Z,0
2023-04-01T21:15:17.078Z,0
2023-04-01T21:16:56.922Z,0
2023-04-01T21:18:36.628Z,0
2023-04-01T21:20:16.339Z,0
2023-04-01T21:21:56.131Z,0
2023-04-01T21:23:36.053Z,0
2023-04-01T21:25:15.581Z,0
2023-04-01T21:26:55.581Z,0
2023-04-01T21:28:35.300Z,0
2023-04-01T21:30:14.982Z,0
2023-04-01T21:31:54.728Z,0
2023-04-01T21:33:34.617Z,0
2023-04-01T21:35:14.201Z,0
2023-04-01T21:36:54.110Z,0
2023-04-01T21:38:33.858Z,0
2023-04-01T21:40:13.609Z,0
2023-04-01T21:41:53.405Z,0
2023-04-01T21:43:33.136Z,0
2023-04-01T21:45:12.776Z,0
2023-04-01T21:46:52.653Z,0
2023-04-01T21:48:32.287Z,0
2023-04-01T21:50:12.133Z,0
2023-04-01T21:51:52.155Z,0
2023-04-01T21:53:31.861Z,0
2023-04-01T21:55:11.551Z,0
2023-04-01T21:56:51.212Z,0
2023-04-01T21:58:31.140Z,0
2023-04-01T22:00:10.812Z,0
2023-04-01T22:01:50.610Z,0
2023-04-01T22:03:30.430Z,0
2023-04-01T22:05:10.116Z,0
2023-04-01T22:06:49.907Z,0
2023-04-01T22:08:29.612Z,0
2023-04-01T22:10:09.463Z,0
2023-04-01T22:11:49.242Z,0
2023-04-01T22:13:29.057Z,0
2023-04-01T22:15:08.830Z,0
2023-04-01T22:16:48.485Z,0
2023-04-01T22:18:28.318Z,0
2023-04-01T22:20:07.934Z,0
2023-04-01T22:21:47.820Z,0
2023-04-01T22:23:27.514Z,0
2023-04-01T22:25:07.303Z,0
2023-04-01T22:26:47.059Z,0
2023-04-01T22:28:26.879Z,0
2023-04-01T22:30:06.745Z,0
2023-04-01T22:31:46.256Z,0
2023-04-01T22:33:26.028Z,0
2023-04-01T22:35:05.970Z,0
2023-04-01T22:36:45.694Z,0
2023-04-01T22:38:25.327Z,0
2023-04-01T22:40:05.137Z,0
2023-04-01T22:41:44.839Z,0
2023-04-01T22:43:24.763Z,0
2023-04-01T22:45:04.525Z,0
2023-04-01T22:46:44.209Z,0
2023-04-01T22:48:23.945Z,0
2023-04-01T22:50:03.736Z,0
2023-04-01T22:51:43.679Z,0
2023-04-01T22:53:23.357Z,0
2023-04-01T22:55:03.126Z,0
2023-04-01T22:56:42.961Z,0
2023-04-01T22:58:22.679Z,0
2023-04-01T23:00:02.560Z,0
2023-04-01T23:01:42.107Z,0
2023-04-01T23:03:21.838Z,0
2023-04-01T23:05:01.720Z,0
2023-04-01T23:06:41.467Z,0
2023-04-01T23:08:21.274Z,0
2023-04-01T23:10:01.095Z,0
2023-04-01T23:11:40.820Z,0
2023-04-01T23:13:20.600Z,0
2023-04-01T23:15:00.234Z,0
2023-04-01T23:16:40.067Z,0
2023-04-01T23:18:19.779Z,0
2023-04-01T23:19:59.736Z,0